createdAt,value
2017-10-25T00:00:57.500Z,1005.04
2017-10-25T00:01:57.500Z,1005.06
2017-10-25T00:02:57.503Z,1005.09
2017-10-25T00:03:57.502Z,1005.10
2017-10-25T00:04:57.502Z,1005.08
2017-10-25T00:05:57.510Z,1005.04
2017-10-25T00:06:57.504Z,1005.09
2017-10-25T00:07:57.505Z,1005.08
2017-10-25T00:08:57.506Z,1005.03
2017-10-25T00:09:57.507Z,1005.02
2017-10-25T00:10:57.510Z,1004.96
2017-10-25T00:11:57.508Z,1004.98
2017-10-25T00:12:57.516Z,1005.00
2017-10-25T00:13:57.510Z,1005.01
2017-10-25T00:14:57.510Z,1004.98
2017-10-25T00:15:57.512Z,1004.96
2017-10-25T00:16:57.512Z,1004.97
2017-10-25T00:17:57.513Z,1004.91
2017-10-25T00:18:57.516Z,1004.96
2017-10-25T00:19:57.515Z,1004.91
2017-10-25T00:20:57.515Z,1004.91
2017-10-25T00:21:57.517Z,1004.91
2017-10-25T00:22:57.544Z,1004.89
2017-10-25T00:23:57.522Z,1004.94
2017-10-25T00:24:57.519Z,1004.90
2017-10-25T00:25:57.521Z,1004.89
2017-10-25T00:26:57.521Z,1004.89
2017-10-25T00:27:57.525Z,1004.93
2017-10-25T00:28:57.523Z,1004.92
2017-10-25T00:29:57.523Z,1004.92
2017-10-25T00:30:57.529Z,1004.88
2017-10-25T00:31:57.526Z,1004.93
2017-10-25T00:32:57.527Z,1004.89
2017-10-25T00:33:57.528Z,1004.93
2017-10-25T00:34:57.527Z,1004.91
2017-10-25T00:35:57.530Z,1004.94
2017-10-25T00:36:57.529Z,1004.86
2017-10-25T00:37:57.531Z,1004.89
2017-10-25T00:38:57.531Z,1004.83
2017-10-25T00:39:57.537Z,1004.86
2017-10-25T00:40:57.536Z,1004.92
2017-10-25T00:41:57.534Z,1004.85
2017-10-25T00:42:57.535Z,1004.86
2017-10-25T00:43:57.537Z,1004.84
2017-10-25T00:44:57.536Z,1004.79
2017-10-25T00:45:57.542Z,1004.81
2017-10-25T00:46:57.543Z,1004.77
2017-10-25T00:47:57.540Z,1004.75
2017-10-25T00:48:57.539Z,1004.78
2017-10-25T00:49:58.355Z,1004.75
2017-10-25T00:50:57.579Z,1004.73
2017-10-25T00:51:57.543Z,1004.74
2017-10-25T00:52:57.542Z,1004.71
2017-10-25T00:53:57.544Z,1004.70
2017-10-25T00:54:57.545Z,1004.68
2017-10-25T00:55:57.546Z,1004.69
2017-10-25T00:56:57.551Z,1004.62
2017-10-25T00:57:57.548Z,1004.64
2017-10-25T00:58:57.548Z,1004.62
2017-10-25T00:59:57.549Z,1004.63
2017-10-25T01:00:57.551Z,1004.64
2017-10-25T01:01:57.554Z,1004.59
2017-10-25T01:02:57.554Z,1004.57
2017-10-25T01:03:57.552Z,1004.55
2017-10-25T01:04:57.555Z,1004.50
2017-10-25T01:05:57.552Z,1004.51
2017-10-25T01:06:57.556Z,1004.45
2017-10-25T01:07:57.554Z,1004.47
2017-10-25T01:08:57.556Z,1004.41
2017-10-25T01:09:57.562Z,1004.42
2017-10-25T01:10:57.557Z,1004.45
2017-10-25T01:11:57.558Z,1004.46
2017-10-25T01:12:57.559Z,1004.47
2017-10-25T01:13:57.559Z,1004.52
2017-10-25T01:14:57.564Z,1004.57
2017-10-25T01:15:57.565Z,1004.53
2017-10-25T01:16:57.560Z,1004.52
2017-10-25T01:17:57.562Z,1004.53
2017-10-25T01:18:58.214Z,1004.53
2017-10-25T01:19:57.564Z,1004.50
2017-10-25T01:20:57.568Z,1004.44
2017-10-25T01:21:57.566Z,1004.42
2017-10-25T01:22:57.567Z,1004.49
2017-10-25T01:23:57.568Z,1004.50
2017-10-25T01:24:57.567Z,1004.51
2017-10-25T01:25:57.619Z,1004.47
2017-10-25T01:26:57.570Z,1004.47
2017-10-25T01:27:57.572Z,1004.50
2017-10-25T01:28:57.571Z,1004.44
2017-10-25T01:29:57.571Z,1004.45
2017-10-25T01:30:57.582Z,1004.40
2017-10-25T01:31:57.578Z,1004.35
2017-10-25T01:32:57.576Z,1004.37
2017-10-25T01:33:57.575Z,1004.31
2017-10-25T01:34:57.594Z,1004.33
2017-10-25T01:35:57.576Z,1004.31
2017-10-25T01:36:57.579Z,1004.25
2017-10-25T01:37:57.578Z,1004.21
2017-10-25T01:38:57.582Z,1004.23
2017-10-25T01:39:57.587Z,1004.18
2017-10-25T01:40:57.594Z,1004.21
2017-10-25T01:41:57.580Z,1004.14
2017-10-25T01:42:57.585Z,1004.13
2017-10-25T01:43:57.586Z,1004.16
2017-10-25T01:44:57.584Z,1004.10
2017-10-25T01:45:57.582Z,1004.11
2017-10-25T01:46:57.583Z,1004.10
2017-10-25T01:47:57.584Z,1004.08
2017-10-25T01:48:57.584Z,1004.11
2017-10-25T01:49:57.586Z,1004.14
2017-10-25T01:50:57.588Z,1004.09
2017-10-25T01:51:57.586Z,1004.12
2017-10-25T01:52:57.586Z,1004.13
2017-10-25T01:53:57.589Z,1004.18
2017-10-25T01:54:57.588Z,1004.17
2017-10-25T01:55:57.595Z,1004.17
2017-10-25T01:56:57.593Z,1004.20
2017-10-25T01:57:57.589Z,1004.20
2017-10-25T01:58:57.590Z,1004.17
2017-10-25T01:59:57.598Z,1004.25
2017-10-25T02:00:57.600Z,1004.29
2017-10-25T02:01:58.117Z,1004.27
2017-10-25T02:02:57.593Z,1004.25
2017-10-25T02:03:57.598Z,1004.25
2017-10-25T02:04:57.599Z,1004.25
2017-10-25T02:05:57.594Z,1004.26
2017-10-25T02:06:57.597Z,1004.25
2017-10-25T02:07:57.604Z,1004.23
2017-10-25T02:08:57.598Z,1004.29
2017-10-25T02:09:57.614Z,1004.26
2017-10-25T02:10:58.581Z,1004.24
2017-10-25T02:11:57.727Z,1004.26
2017-10-25T02:12:57.885Z,1004.25
2017-10-25T02:13:57.774Z,1004.24
2017-10-25T02:14:58.579Z,1004.22
2017-10-25T02:15:57.803Z,1004.20
2017-10-25T02:16:58.260Z,1004.17
2017-10-25T02:17:58.576Z,1004.17
2017-10-25T02:18:57.699Z,1004.20
2017-10-25T02:19:59.070Z,1004.17
2017-10-25T02:20:57.788Z,1004.22
2017-10-25T02:21:57.689Z,1004.21
2017-10-25T02:22:57.602Z,1004.22
2017-10-25T02:23:57.637Z,1004.20
2017-10-25T02:24:57.607Z,1004.22
2017-10-25T02:25:57.603Z,1004.17
2017-10-25T02:26:57.604Z,1004.14
2017-10-25T02:27:57.605Z,1004.19
2017-10-25T02:28:57.604Z,1004.15
2017-10-25T02:29:57.605Z,1004.15
2017-10-25T02:30:57.606Z,1004.13
2017-10-25T02:31:57.628Z,1004.18
2017-10-25T02:32:57.605Z,1004.16
2017-10-25T02:33:57.608Z,1004.19
2017-10-25T02:34:57.606Z,1004.24
2017-10-25T02:35:57.610Z,1004.24
2017-10-25T02:36:57.609Z,1004.21
2017-10-25T02:37:57.607Z,1004.24
2017-10-25T02:38:57.609Z,1004.24
2017-10-25T02:39:57.609Z,1004.26
2017-10-25T02:40:57.608Z,1004.23
2017-10-25T02:41:57.612Z,1004.24
2017-10-25T02:42:57.610Z,1004.30
2017-10-25T02:43:57.615Z,1004.31
2017-10-25T02:44:57.611Z,1004.32
2017-10-25T02:45:57.611Z,1004.31
2017-10-25T02:46:57.617Z,1004.35
2017-10-25T02:47:58.649Z,1004.33
2017-10-25T02:48:57.612Z,1004.34
2017-10-25T02:49:57.877Z,1004.32
2017-10-25T02:50:57.616Z,1004.32
2017-10-25T02:51:57.614Z,1004.33
2017-10-25T02:52:57.615Z,1004.34
2017-10-25T02:53:57.616Z,1004.33
2017-10-25T02:54:57.614Z,1004.40
2017-10-25T02:55:57.616Z,1004.36
2017-10-25T02:56:57.617Z,1004.38
2017-10-25T02:57:57.617Z,1004.39
2017-10-25T02:58:57.619Z,1004.42
2017-10-25T02:59:57.617Z,1004.44
2017-10-25T03:00:57.618Z,1004.43
2017-10-25T03:01:57.620Z,1004.45
2017-10-25T03:02:57.622Z,1004.43
2017-10-25T03:03:57.627Z,1004.37
2017-10-25T03:04:57.620Z,1004.39
2017-10-25T03:05:57.621Z,1004.42
2017-10-25T03:06:57.623Z,1004.40
2017-10-25T03:07:57.622Z,1004.34
2017-10-25T03:08:57.623Z,1004.35
2017-10-25T03:09:57.623Z,1004.29
2017-10-25T03:10:57.633Z,1004.31
2017-10-25T03:11:57.625Z,1004.35
2017-10-25T03:12:57.625Z,1004.36
2017-10-25T03:13:57.627Z,1004.36
2017-10-25T03:14:57.627Z,1004.40
2017-10-25T03:15:57.628Z,1004.39
2017-10-25T03:16:57.627Z,1004.38
2017-10-25T03:17:57.761Z,1004.40
2017-10-25T03:18:57.631Z,1004.38
2017-10-25T03:19:57.631Z,1004.35
2017-10-25T03:20:57.631Z,1004.31
2017-10-25T03:21:57.631Z,1004.31
2017-10-25T03:22:57.637Z,1004.34
2017-10-25T03:23:59.131Z,1004.33
2017-10-25T03:24:57.635Z,1004.28
2017-10-25T03:25:57.638Z,1004.28
2017-10-25T03:26:57.637Z,1004.30
2017-10-25T03:27:57.637Z,1004.27
2017-10-25T03:28:57.636Z,1004.28
2017-10-25T03:29:57.637Z,1004.26
2017-10-25T03:30:57.647Z,1004.29
2017-10-25T03:31:57.642Z,1004.29
2017-10-25T03:32:57.640Z,1004.27
2017-10-25T03:33:57.642Z,1004.30
2017-10-25T03:34:57.642Z,1004.30
2017-10-25T03:35:57.643Z,1004.31
2017-10-25T03:36:57.644Z,1004.34
2017-10-25T03:37:57.644Z,1004.35
2017-10-25T03:38:57.647Z,1004.36
2017-10-25T03:39:57.647Z,1004.38
2017-10-25T03:40:57.647Z,1004.38
2017-10-25T03:41:57.647Z,1004.39
2017-10-25T03:42:57.649Z,1004.41
2017-10-25T03:43:57.656Z,1004.41
2017-10-25T03:44:57.649Z,1004.40
2017-10-25T03:45:57.651Z,1004.43
2017-10-25T03:46:57.651Z,1004.40
2017-10-25T03:47:57.652Z,1004.40
2017-10-25T03:48:57.652Z,1004.39
2017-10-25T03:49:57.656Z,1004.37
2017-10-25T03:50:57.655Z,1004.35
2017-10-25T03:51:57.655Z,1004.35
2017-10-25T03:52:57.662Z,1004.34
2017-10-25T03:53:57.656Z,1004.33
2017-10-25T03:54:57.659Z,1004.35
2017-10-25T03:55:57.658Z,1004.34
2017-10-25T03:56:57.658Z,1004.36
2017-10-25T03:57:57.662Z,1004.36
2017-10-25T03:58:57.666Z,1004.40
2017-10-25T03:59:57.664Z,1004.39
2017-10-25T04:00:57.662Z,1004.39
2017-10-25T04:01:57.662Z,1004.30
2017-10-25T04:02:57.664Z,1004.30
2017-10-25T04:03:57.673Z,1004.35
2017-10-25T04:04:57.666Z,1004.31
2017-10-25T04:05:57.667Z,1004.31
2017-10-25T04:06:57.667Z,1004.34
2017-10-25T04:07:57.666Z,1004.32
2017-10-25T04:08:57.667Z,1004.32
2017-10-25T04:09:57.669Z,1004.33
2017-10-25T04:10:57.677Z,1004.33
2017-10-25T04:11:57.673Z,1004.32
2017-10-25T04:12:57.670Z,1004.32
2017-10-25T04:13:57.675Z,1004.30
2017-10-25T04:14:57.674Z,1004.31
2017-10-25T04:15:57.883Z,1004.29
2017-10-25T04:16:57.712Z,1004.27
2017-10-25T04:17:57.674Z,1004.29
2017-10-25T04:18:57.675Z,1004.28
2017-10-25T04:19:57.678Z,1004.27
2017-10-25T04:20:57.676Z,1004.25
2017-10-25T04:21:57.679Z,1004.26
2017-10-25T04:22:57.678Z,1004.24
2017-10-25T04:23:57.683Z,1004.19
2017-10-25T04:24:57.679Z,1004.20
2017-10-25T04:25:57.680Z,1004.18
2017-10-25T04:26:57.682Z,1004.17
2017-10-25T04:27:57.681Z,1004.17
2017-10-25T04:28:57.682Z,1004.13
2017-10-25T04:29:57.683Z,1004.08
2017-10-25T04:30:57.683Z,1004.10
2017-10-25T04:31:57.685Z,1004.06
2017-10-25T04:32:57.685Z,1004.08
2017-10-25T04:33:57.688Z,1004.07
2017-10-25T04:34:57.687Z,1004.07
2017-10-25T04:35:57.700Z,1004.05
2017-10-25T04:36:57.688Z,1004.10
2017-10-25T04:37:57.689Z,1004.07
2017-10-25T04:38:57.690Z,1004.06
2017-10-25T04:39:57.690Z,1004.08
2017-10-25T04:40:57.691Z,1004.07
2017-10-25T04:41:57.693Z,1004.10
2017-10-25T04:42:57.693Z,1004.06
2017-10-25T04:43:57.695Z,1004.05
2017-10-25T04:44:57.696Z,1004.05
2017-10-25T04:45:57.695Z,1004.03
2017-10-25T04:46:57.696Z,1004.01
2017-10-25T04:47:57.701Z,1003.99
2017-10-25T04:48:58.652Z,1003.99
2017-10-25T04:49:57.698Z,1003.99
2017-10-25T04:50:57.701Z,1004.03
2017-10-25T04:51:57.701Z,1004.00
2017-10-25T04:52:57.700Z,1004.01
2017-10-25T04:53:57.702Z,1004.08
2017-10-25T04:54:57.703Z,1004.03
2017-10-25T04:55:57.707Z,1004.04
2017-10-25T04:56:57.704Z,1004.03
2017-10-25T04:57:57.704Z,1003.95
2017-10-25T04:58:57.705Z,1003.92
2017-10-25T04:59:57.709Z,1003.93
2017-10-25T05:00:57.708Z,1003.91
2017-10-25T05:01:57.709Z,1003.89
2017-10-25T05:02:57.710Z,1003.92
2017-10-25T05:03:57.711Z,1003.89
2017-10-25T05:04:57.710Z,1003.94
2017-10-25T05:05:57.711Z,1003.94
2017-10-25T05:06:57.712Z,1003.93
2017-10-25T05:07:57.716Z,1003.88
2017-10-25T05:08:57.713Z,1003.89
2017-10-25T05:09:57.715Z,1003.86
2017-10-25T05:10:57.721Z,1003.83
2017-10-25T05:11:57.717Z,1003.85
2017-10-25T05:12:57.718Z,1003.86
2017-10-25T05:13:57.718Z,1003.86
2017-10-25T05:14:57.720Z,1003.88
2017-10-25T05:15:57.725Z,1003.90
2017-10-25T05:16:57.720Z,1003.86
2017-10-25T05:17:57.721Z,1003.86
2017-10-25T05:18:57.734Z,1003.87
2017-10-25T05:19:57.723Z,1003.90
2017-10-25T05:20:57.732Z,1003.86
2017-10-25T05:21:57.725Z,1003.85
2017-10-25T05:22:57.725Z,1003.87
2017-10-25T05:23:57.726Z,1003.86
2017-10-25T05:24:57.729Z,1003.90
2017-10-25T05:25:57.726Z,1003.84
2017-10-25T05:26:57.729Z,1003.91
2017-10-25T05:27:57.729Z,1003.91
2017-10-25T05:28:57.729Z,1003.86
2017-10-25T05:29:57.729Z,1003.86
2017-10-25T05:30:57.731Z,1003.84
2017-10-25T05:31:57.732Z,1003.82
2017-10-25T05:32:57.734Z,1003.84
2017-10-25T05:33:57.732Z,1003.84
2017-10-25T05:34:57.738Z,1003.84
2017-10-25T05:35:57.733Z,1003.86
2017-10-25T05:36:57.733Z,1003.85
2017-10-25T05:37:57.733Z,1003.85
2017-10-25T05:38:57.735Z,1003.85
2017-10-25T05:39:57.735Z,1003.81
2017-10-25T05:40:57.736Z,1003.82
2017-10-25T05:41:57.735Z,1003.84
2017-10-25T05:42:57.740Z,1003.83
2017-10-25T05:43:57.744Z,1003.82
2017-10-25T05:44:57.737Z,1003.80
2017-10-25T05:45:57.741Z,1003.81
2017-10-25T05:46:57.742Z,1003.82
2017-10-25T05:47:57.745Z,1003.79
2017-10-25T05:48:57.741Z,1003.84
2017-10-25T05:49:57.742Z,1003.86
2017-10-25T05:50:57.743Z,1003.91
2017-10-25T05:51:57.743Z,1003.87
2017-10-25T05:52:57.743Z,1003.90
2017-10-25T05:53:57.744Z,1003.86
2017-10-25T05:54:57.745Z,1003.88
2017-10-25T05:55:57.747Z,1003.91
2017-10-25T05:56:57.746Z,1003.99
2017-10-25T05:57:57.746Z,1004.03
2017-10-25T05:58:57.748Z,1004.02
2017-10-25T05:59:57.750Z,1004.09
2017-10-25T06:00:57.749Z,1004.09
2017-10-25T06:01:57.750Z,1004.12
2017-10-25T06:02:57.753Z,1004.14
2017-10-25T06:03:57.752Z,1004.12
2017-10-25T06:04:57.757Z,1004.11
2017-10-25T06:05:57.752Z,1004.08
2017-10-25T06:06:57.753Z,1004.07
2017-10-25T06:07:57.755Z,1004.03
2017-10-25T06:08:57.797Z,1004.04
2017-10-25T06:09:57.758Z,1004.11
2017-10-25T06:10:57.762Z,1004.09
2017-10-25T06:11:57.770Z,1004.07
2017-10-25T06:12:57.763Z,1004.06
2017-10-25T06:13:57.760Z,1004.10
2017-10-25T06:14:57.763Z,1004.13
2017-10-25T06:15:57.763Z,1004.07
2017-10-25T06:16:57.762Z,1004.11
2017-10-25T06:17:57.768Z,1004.07
2017-10-25T06:18:57.773Z,1004.11
2017-10-25T06:19:57.766Z,1004.08
2017-10-25T06:20:57.765Z,1004.12
2017-10-25T06:21:57.767Z,1004.12
2017-10-25T06:22:57.767Z,1004.12
2017-10-25T06:23:57.785Z,1004.10
2017-10-25T06:24:57.769Z,1004.09
2017-10-25T06:25:57.770Z,1004.10
2017-10-25T06:26:57.771Z,1004.10
2017-10-25T06:27:57.774Z,1004.10
2017-10-25T06:28:57.774Z,1004.12
2017-10-25T06:29:57.776Z,1004.15
2017-10-25T06:30:57.776Z,1004.13
2017-10-25T06:31:57.779Z,1004.16
2017-10-25T06:32:57.776Z,1004.18
2017-10-25T06:33:57.778Z,1004.17
2017-10-25T06:34:57.787Z,1004.26
2017-10-25T06:35:57.781Z,1004.20
2017-10-25T06:36:57.781Z,1004.26
2017-10-25T06:37:57.784Z,1004.35
2017-10-25T06:38:57.783Z,1004.30
2017-10-25T06:39:57.787Z,1004.35
2017-10-25T06:40:57.785Z,1004.33
2017-10-25T06:41:57.788Z,1004.33
2017-10-25T06:42:57.789Z,1004.32
2017-10-25T06:43:57.789Z,1004.36
2017-10-25T06:44:57.788Z,1004.40
2017-10-25T06:45:57.793Z,1004.42
2017-10-25T06:46:57.793Z,1004.42
2017-10-25T06:47:57.793Z,1004.43
2017-10-25T06:48:57.795Z,1004.44
2017-10-25T06:49:57.794Z,1004.42
2017-10-25T06:50:57.797Z,1004.45
2017-10-25T06:51:57.797Z,1004.46
2017-10-25T06:52:57.797Z,1004.49
2017-10-25T06:53:57.801Z,1004.55
2017-10-25T06:54:57.800Z,1004.47
2017-10-25T06:55:57.801Z,1004.49
2017-10-25T06:56:57.803Z,1004.50
2017-10-25T06:57:57.803Z,1004.48
2017-10-25T06:58:57.804Z,1004.52
2017-10-25T06:59:57.810Z,1004.52
2017-10-25T07:00:57.806Z,1004.51
2017-10-25T07:01:57.810Z,1004.49
2017-10-25T07:02:57.810Z,1004.46
2017-10-25T07:03:57.810Z,1004.46
2017-10-25T07:04:57.812Z,1004.49
2017-10-25T07:05:57.815Z,1004.49
2017-10-25T07:06:57.818Z,1004.52
2017-10-25T07:07:57.816Z,1004.49
2017-10-25T07:08:57.815Z,1004.49
2017-10-25T07:09:57.815Z,1004.51
2017-10-25T07:10:57.823Z,1004.46
2017-10-25T07:11:57.823Z,1004.54
2017-10-25T07:12:57.822Z,1004.55
2017-10-25T07:13:57.820Z,1004.55
2017-10-25T07:14:57.824Z,1004.54
2017-10-25T07:15:57.825Z,1004.53
2017-10-25T07:16:57.825Z,1004.54
2017-10-25T07:17:57.841Z,1004.55
2017-10-25T07:18:57.828Z,1004.55
2017-10-25T07:19:57.829Z,1004.57
2017-10-25T07:20:57.833Z,1004.53
2017-10-25T07:21:58.194Z,1004.56
2017-10-25T07:22:57.835Z,1004.55
2017-10-25T07:23:57.836Z,1004.55
2017-10-25T07:24:57.833Z,1004.59
2017-10-25T07:25:57.838Z,1004.59
2017-10-25T07:26:57.837Z,1004.50
2017-10-25T07:27:57.839Z,1004.59
2017-10-25T07:28:57.844Z,1004.57
2017-10-25T07:29:57.842Z,1004.57
2017-10-25T07:30:57.844Z,1004.60
2017-10-25T07:31:57.846Z,1004.57
2017-10-25T07:32:57.844Z,1004.54
2017-10-25T07:33:57.848Z,1004.53
2017-10-25T07:34:57.847Z,1004.45
2017-10-25T07:35:57.857Z,1004.45
2017-10-25T07:36:57.849Z,1004.42
2017-10-25T07:37:57.851Z,1004.44
2017-10-25T07:38:57.852Z,1004.43
2017-10-25T07:39:57.855Z,1004.44
2017-10-25T07:40:57.854Z,1004.45
2017-10-25T07:41:57.871Z,1004.43
2017-10-25T07:42:57.863Z,1004.48
2017-10-25T07:43:57.861Z,1004.47
2017-10-25T07:44:57.860Z,1004.41
2017-10-25T07:45:57.868Z,1004.49
2017-10-25T07:46:57.864Z,1004.47
2017-10-25T07:47:57.886Z,1004.47
2017-10-25T07:48:57.868Z,1004.44
2017-10-25T07:49:57.871Z,1004.46
2017-10-25T07:50:57.874Z,1004.36
2017-10-25T07:51:57.873Z,1004.34
2017-10-25T07:52:57.873Z,1004.33
2017-10-25T07:53:57.902Z,1004.29
2017-10-25T07:54:57.878Z,1004.34
2017-10-25T07:55:57.879Z,1004.37
2017-10-25T07:56:57.883Z,1004.31
2017-10-25T07:57:57.885Z,1004.33
2017-10-25T07:58:57.887Z,1004.35
2017-10-25T07:59:57.892Z,1004.39
2017-10-25T08:00:57.887Z,1004.35
2017-10-25T08:01:57.889Z,1004.39
2017-10-25T08:02:57.889Z,1004.40
2017-10-25T08:03:57.894Z,1004.37
2017-10-25T08:04:57.899Z,1004.34
2017-10-25T08:05:57.896Z,1004.33
2017-10-25T08:06:57.898Z,1004.29
2017-10-25T08:07:57.907Z,1004.30
2017-10-25T08:08:57.901Z,1004.28
2017-10-25T08:09:57.903Z,1004.29
2017-10-25T08:10:57.906Z,1004.24
2017-10-25T08:11:57.907Z,1004.18
2017-10-25T08:12:57.909Z,1004.20
2017-10-25T08:13:57.910Z,1004.20
2017-10-25T08:14:57.912Z,1004.22
2017-10-25T08:15:57.915Z,1004.24
2017-10-25T08:16:57.917Z,1004.30
2017-10-25T08:17:57.921Z,1004.28
2017-10-25T08:18:57.920Z,1004.29
2017-10-25T08:19:57.931Z,1004.36
2017-10-25T08:20:57.927Z,1004.33
2017-10-25T08:21:57.936Z,1004.31
2017-10-25T08:22:57.925Z,1004.31
2017-10-25T08:23:57.932Z,1004.28
2017-10-25T08:24:57.928Z,1004.28
2017-10-25T08:25:57.929Z,1004.20
2017-10-25T08:26:57.932Z,1004.23
2017-10-25T08:27:57.937Z,1004.19
2017-10-25T08:28:57.943Z,1004.11
2017-10-25T08:29:57.937Z,1004.08
2017-10-25T08:30:57.941Z,1004.07
2017-10-25T08:31:57.941Z,1004.05
2017-10-25T08:32:57.943Z,1004.05
2017-10-25T08:33:57.945Z,1004.10
2017-10-25T08:34:57.947Z,1004.07
2017-10-25T08:35:57.982Z,1004.05
2017-10-25T08:36:57.952Z,1004.12
2017-10-25T08:37:57.973Z,1004.16
2017-10-25T08:38:57.972Z,1004.20
2017-10-25T08:39:57.963Z,1004.23
2017-10-25T08:40:57.958Z,1004.27
2017-10-25T08:41:58.725Z,1004.24
2017-10-25T08:42:58.396Z,1004.32
2017-10-25T08:43:58.741Z,1004.29
2017-10-25T08:44:58.784Z,1004.31
2017-10-25T08:45:58.323Z,1004.25
2017-10-25T08:46:58.935Z,1004.27
2017-10-25T08:47:59.272Z,1004.26
2017-10-25T08:48:58.152Z,1004.22
2017-10-25T08:49:58.176Z,1004.26
2017-10-25T08:50:58.611Z,1004.14
2017-10-25T08:51:58.754Z,1004.11
2017-10-25T08:52:58.758Z,1004.13
2017-10-25T08:53:58.066Z,1004.15
2017-10-25T08:54:59.230Z,1004.13
2017-10-25T08:55:58.671Z,1004.14
2017-10-25T08:56:58.775Z,1004.16
2017-10-25T08:57:58.716Z,1004.15
2017-10-25T08:58:58.137Z,1004.10
2017-10-25T08:59:58.119Z,1004.05
2017-10-25T09:00:58.725Z,1004.13
2017-10-25T09:01:58.066Z,1004.05
2017-10-25T09:02:58.018Z,1004.04
2017-10-25T09:03:58.017Z,1004.05
2017-10-25T09:04:58.027Z,1004.07
2017-10-25T09:05:58.028Z,1004.02
2017-10-25T09:06:58.024Z,1003.95
2017-10-25T09:07:58.672Z,1003.91
2017-10-25T09:08:58.704Z,1003.91
2017-10-25T09:09:58.037Z,1003.92
2017-10-25T09:10:58.037Z,1003.99
2017-10-25T09:11:58.046Z,1003.99
2017-10-25T09:12:58.041Z,1004.05
2017-10-25T09:13:58.067Z,1004.13
2017-10-25T09:14:58.057Z,1004.21
2017-10-25T09:15:58.054Z,1004.16
2017-10-25T09:16:58.053Z,1004.16
2017-10-25T09:17:58.061Z,1004.21
2017-10-25T09:18:58.080Z,1004.21
2017-10-25T09:19:58.062Z,1004.23
2017-10-25T09:20:58.080Z,1004.16
2017-10-25T09:21:58.066Z,1004.18
2017-10-25T09:22:58.215Z,1004.16
2017-10-25T09:23:58.072Z,1004.18
2017-10-25T09:24:58.094Z,1004.28
2017-10-25T09:25:58.094Z,1004.29
2017-10-25T09:26:58.082Z,1004.21
2017-10-25T09:27:58.083Z,1004.21
2017-10-25T09:28:58.087Z,1004.20
2017-10-25T09:29:58.095Z,1004.14
2017-10-25T09:30:58.089Z,1004.10
2017-10-25T09:31:58.101Z,1004.18
2017-10-25T09:32:58.095Z,1004.18
2017-10-25T09:33:58.098Z,1004.17
2017-10-25T09:34:58.105Z,1004.19
2017-10-25T09:35:58.105Z,1004.19
2017-10-25T09:36:58.105Z,1004.20
2017-10-25T09:37:58.107Z,1004.25
2017-10-25T09:38:59.260Z,1004.25
2017-10-25T09:39:58.114Z,1004.30
2017-10-25T09:40:58.124Z,1004.34
2017-10-25T09:41:58.124Z,1004.36
2017-10-25T09:42:58.180Z,1004.37
2017-10-25T09:43:58.124Z,1004.35
2017-10-25T09:44:58.129Z,1004.36
2017-10-25T09:45:58.129Z,1004.34
2017-10-25T09:46:58.138Z,1004.29
2017-10-25T09:47:58.136Z,1004.35
2017-10-25T09:48:58.140Z,1004.36
2017-10-25T09:49:58.147Z,1004.31
2017-10-25T09:50:58.143Z,1004.32
2017-10-25T09:51:58.147Z,1004.32
2017-10-25T09:52:58.151Z,1004.29
2017-10-25T09:53:58.151Z,1004.29
2017-10-25T09:54:58.154Z,1004.34
2017-10-25T09:55:58.160Z,1004.27
2017-10-25T09:56:58.160Z,1004.26
2017-10-25T09:57:58.163Z,1004.22
2017-10-25T09:58:58.165Z,1004.24
2017-10-25T09:59:58.169Z,1004.28
2017-10-25T10:00:58.173Z,1004.24
2017-10-25T10:01:58.174Z,1004.25
2017-10-25T10:02:58.178Z,1004.25
2017-10-25T10:03:58.179Z,1004.27
2017-10-25T10:04:58.182Z,1004.29
2017-10-25T10:05:58.191Z,1004.28
2017-10-25T10:06:58.216Z,1004.30
2017-10-25T10:07:58.193Z,1004.25
2017-10-25T10:08:58.235Z,1004.28
2017-10-25T10:09:58.196Z,1004.23
2017-10-25T10:10:58.200Z,1004.18
2017-10-25T10:11:58.203Z,1004.10
2017-10-25T10:12:58.213Z,1004.05
2017-10-25T10:13:58.209Z,1004.04
2017-10-25T10:14:58.212Z,1004.07
2017-10-25T10:15:58.217Z,1004.12
2017-10-25T10:16:58.220Z,1004.10
2017-10-25T10:17:58.231Z,1004.08
2017-10-25T10:18:58.232Z,1004.08
2017-10-25T10:19:58.229Z,1004.06
2017-10-25T10:20:58.233Z,1004.07
2017-10-25T10:21:58.261Z,1004.05
2017-10-25T10:22:58.237Z,1004.01
2017-10-25T10:23:58.241Z,1004.04
2017-10-25T10:24:58.242Z,1004.00
2017-10-25T10:25:58.246Z,1003.99
2017-10-25T10:26:58.262Z,1003.96
2017-10-25T10:27:58.253Z,1003.99
2017-10-25T10:28:58.257Z,1003.99
2017-10-25T10:29:58.259Z,1003.94
2017-10-25T10:30:58.262Z,1003.95
2017-10-25T10:31:58.266Z,1003.87
2017-10-25T10:32:58.270Z,1003.88
2017-10-25T10:33:58.272Z,1003.90
2017-10-25T10:34:58.274Z,1003.81
2017-10-25T10:35:58.279Z,1003.85
2017-10-25T10:36:58.282Z,1003.87
2017-10-25T10:37:58.284Z,1003.92
2017-10-25T10:38:58.300Z,1003.87
2017-10-25T10:39:58.458Z,1003.81
2017-10-25T10:40:58.331Z,1003.72
2017-10-25T10:41:58.297Z,1003.79
2017-10-25T10:42:58.301Z,1003.71
2017-10-25T10:43:58.303Z,1003.72
2017-10-25T10:44:58.306Z,1003.71
2017-10-25T10:45:58.310Z,1003.66
2017-10-25T10:46:58.315Z,1003.66
2017-10-25T10:47:58.318Z,1003.64
2017-10-25T10:48:58.460Z,1003.59
2017-10-25T10:49:58.447Z,1003.60
2017-10-25T10:50:58.489Z,1003.53
2017-10-25T10:51:58.337Z,1003.49
2017-10-25T10:52:58.332Z,1003.52
2017-10-25T10:53:58.337Z,1003.52
2017-10-25T10:54:58.344Z,1003.52
2017-10-25T10:55:58.349Z,1003.51
2017-10-25T10:56:58.348Z,1003.46
2017-10-25T10:57:58.349Z,1003.48
2017-10-25T10:58:58.352Z,1003.46
2017-10-25T10:59:58.361Z,1003.48
2017-10-25T11:00:58.359Z,1003.46
2017-10-25T11:01:58.362Z,1003.43
2017-10-25T11:02:58.367Z,1003.42
2017-10-25T11:03:58.370Z,1003.43
2017-10-25T11:04:58.375Z,1003.36
2017-10-25T11:05:58.376Z,1003.37
2017-10-25T11:06:58.379Z,1003.33
2017-10-25T11:07:58.383Z,1003.36
2017-10-25T11:08:58.385Z,1003.34
2017-10-25T11:09:58.394Z,1003.30
2017-10-25T11:10:58.392Z,1003.23
2017-10-25T11:11:58.397Z,1003.26
2017-10-25T11:12:58.400Z,1003.27
2017-10-25T11:13:58.402Z,1003.30
2017-10-25T11:14:58.408Z,1003.24
2017-10-25T11:15:58.414Z,1003.31
2017-10-25T11:16:58.414Z,1003.27
2017-10-25T11:17:58.417Z,1003.30
2017-10-25T11:18:58.420Z,1003.31
2017-10-25T11:19:58.424Z,1003.24
2017-10-25T11:20:58.429Z,1003.31
2017-10-25T11:21:58.434Z,1003.33
2017-10-25T11:22:58.464Z,1003.36
2017-10-25T11:23:58.440Z,1003.34
2017-10-25T11:24:58.443Z,1003.30
2017-10-25T11:25:58.466Z,1003.33
2017-10-25T11:26:58.458Z,1003.36
2017-10-25T11:27:58.452Z,1003.46
2017-10-25T11:28:58.464Z,1003.48
2017-10-25T11:29:58.470Z,1003.45
2017-10-25T11:30:58.463Z,1003.41
2017-10-25T11:31:58.464Z,1003.43
2017-10-25T11:32:58.473Z,1003.38
2017-10-25T11:33:58.471Z,1003.39
2017-10-25T11:34:58.474Z,1003.42
2017-10-25T11:35:58.478Z,1003.38
2017-10-25T11:36:58.486Z,1003.45
2017-10-25T11:37:58.488Z,1003.53
2017-10-25T11:38:58.507Z,1003.54
2017-10-25T11:39:58.495Z,1003.53
2017-10-25T11:40:58.499Z,1003.49
2017-10-25T11:41:58.501Z,1003.52
2017-10-25T11:42:58.562Z,1003.53
2017-10-25T11:43:58.513Z,1003.49
2017-10-25T11:44:58.512Z,1003.49
2017-10-25T11:45:58.519Z,1003.53
2017-10-25T11:46:58.530Z,1003.54
2017-10-25T11:47:58.520Z,1003.49
2017-10-25T11:48:58.522Z,1003.50
2017-10-25T11:49:58.564Z,1003.50
2017-10-25T11:50:58.530Z,1003.52
2017-10-25T11:51:58.534Z,1003.60
2017-10-25T11:52:58.542Z,1003.65
2017-10-25T11:53:58.541Z,1003.68
2017-10-25T11:54:58.544Z,1003.76
2017-10-25T11:55:58.548Z,1003.75
2017-10-25T11:56:58.551Z,1003.74
2017-10-25T11:57:58.558Z,1003.72
2017-10-25T11:58:58.558Z,1003.70
2017-10-25T11:59:58.563Z,1003.67
2017-10-25T12:00:58.564Z,1003.74
2017-10-25T12:01:58.568Z,1003.67
2017-10-25T12:02:58.572Z,1003.69
2017-10-25T12:03:58.582Z,1003.64
2017-10-25T12:04:58.588Z,1003.67
2017-10-25T12:05:58.587Z,1003.65